• Join FlightAware (Why Join?)
  • Login
  • US Flag 
04:32AM EDT


 

Airport Tracker/Info


-or-


 

Live Flight TrackerFlight Track Log ✈ FLG4222 ✈ 01-Dec-2013 ✈ KBGM - KDTW

Flight Track Log - Related Links

Times and Time Zones

All times are in EST time to prevent confusion due to time zone crossing. See the FLG4222 flight status page for this flight to view local times or setup timezone preferences in your user account.

Time Position Orientation Groundspeed Altitude Reporting Facility
EST Latitude Longitude Course Direction KTS MPH feet Rate Location/Type
11:55AM 42.1917 -76.0886 293° West 255 293 6,800  Level New York Center
11:56AM 42.2167 -76.1747 291° West 260 299 9,300 1,920 Climbing New York Center
11:57AM 42.2456 -76.2722 292° West 260 299 10,700 1,740 Climbing New York Center
11:58AM 42.2803 -76.3789 294° West 287 330 12,800 2,040 Climbing New York Center
11:59AM 42.3206 -76.5136 292° West 321 369 15,400 1,920 Climbing Cleveland Center
12:00PM 42.3539 -76.6267 292° West 326 375 17,200 1,620 Climbing Cleveland Center
12:01PM 42.3897 -76.7422 293° West 333 383 18,800 1,620 Climbing Cleveland Center
12:02PM 42.4294 -76.8811 291° West 330 380 20,600 1,380 Climbing Cleveland Center
12:03PM 42.4647 -76.9997 292° West 337 388 21,700 960 Climbing Cleveland Center
12:04PM 42.5008 -77.1242 292° West 352 405 22,700 960 Climbing Cleveland Center
12:05PM 42.5372 -77.2486 292° West 355 409 23,700 900 Climbing Cleveland Center
12:06PM 42.5736 -77.3742 292° West 359 413 24,600 780 Climbing Cleveland Center
12:07PM 42.6156 -77.5214 291° West 363 418 25,400 660 Climbing Cleveland Center
12:08PM 42.6514 -77.6489 291° West 361 415 26,000 240 Climbing Cleveland Center
12:09PM 42.6903 -77.7847 291° West 382 440 26,000  Level Cleveland Center
12:10PM 42.7275 -77.9172 291° West 397 457 26,000  Level Cleveland Center
12:11PM 42.7747 -78.0844 291° West 395 455 26,000  Level Cleveland Center
12:12PM 42.8144 -78.2233 291° West 394 453 26,000  Level Cleveland Center
12:13PM 42.8519 -78.3625 290° West 393 452 26,000  Level Cleveland Center
12:15PM 42.8892 -78.5008 290° West 390 449 26,000  Level Cleveland Center
12:16PM 42.9306 -78.6575 290° West 392 451 26,100 420 Climbing Cleveland Center
12:17PM 42.9067 -78.8072 258° West 383 441 26,900 720 Climbing Cleveland Center
12:18PM 42.8861 -78.9467 259° West 377 434 27,700 480 Climbing Cleveland Center
12:19PM 42.8644 -79.0861 258° West 378 435 28,000 120 Climbing Cleveland Center
12:20PM 42.8436 -79.2292 259° West 387 445 28,000  Level Cleveland Center
12:21PM 42.8228 -79.3733 259° West 390 449 28,000  Level Cleveland Center
12:22PM 42.8008 -79.5189 258° West 392 451 28,000  Level Cleveland Center
12:23PM 42.7736 -79.6958 258° West 399 459 28,000  Level Cleveland Center
12:24PM 42.7519 -79.8425 259° West 398 458 28,000  Level Cleveland Center
12:25PM 42.7461 -79.9797 267° West 398 458 28,000  Level Cleveland Center
12:26PM 42.7383 -80.1578 267° West 400 460 28,000  Level Cleveland Center
12:27PM 42.7319 -80.3092 267° West 400 460 28,000  Level Cleveland Center
12:28PM 42.7253 -80.4611 267° West 400 460 28,000 -60 Level Cleveland Center
12:29PM 42.7186 -80.6119 267° West 398 458 27,900 -540 Descending Cleveland Center
12:30PM 42.7144 -80.7556 268° West 383 441 26,900 -1,080 Descending Cleveland Center
12:31PM 42.7075 -80.8828 266° West 345 397 25,700 -1,200 Descending Cleveland Center
12:32PM 42.6925 -81.0122 261° West 345 397 24,500 -840 Descending Cleveland Center
12:33PM 42.6756 -81.1603 261° West 340 391 24,000 -300 Descending Cleveland Center
12:34PM 42.6608 -81.2869 261° West 339 390 24,000  Level Cleveland Center
12:35PM 42.6464 -81.4175 261° West 344 396 24,000 -300 Level Cleveland Center
12:36PM 42.6306 -81.5472 261° West 346 398 23,400 -1,020 Descending Cleveland Center
12:37PM 42.6156 -81.6758 261° West 343 395 21,900 -1,500 Descending Cleveland Center
12:38PM 42.6017 -81.7956 261° West 331 381 20,400 -1,440 Descending Cleveland Center
12:39PM 42.5872 -81.9139 261° West 321 369 18,900 -1,560 Descending Cleveland Center
12:40PM 42.5706 -82.0544 261° West 318 366 17,200 -1,500 Descending Cleveland Center
12:41PM 42.5553 -82.1708 260° West 314 361 15,900 -1,380 Descending Cleveland Center
12:42PM 42.5442 -82.2625 261° West 319 367 14,900 -1,260 Descending Cleveland Center
12:42PM 42.5411 -82.2889 261° West 317 365 14,600 -1,440 Descending Cleveland Center
12:43PM 42.5386 -82.3128 262° West 316 364 14,300 -1,260 Descending Cleveland Center
12:43PM 42.5269 -82.4036 260° West 313 360 13,300 -1,320 Descending Cleveland Center
12:44PM 42.5244 -82.4269 262° West 306 352 13,000 -1,200 Descending Cleveland Center
12:45PM 42.5136 -82.5150 261° West 304 350 12,100 -1,020 Descending Cleveland Center
12:45PM 42.5083 -82.5381 253° West 295 339 12,000 -660 Descending Cleveland Center
12:46PM 42.4764 -82.6358 246° West 275 316 11,400 -780 Descending Cleveland Center
12:47PM 42.4422 -82.7031 235° Southwest 239 275 10,500 -900 Descending Cleveland Center
12:47PM 42.4400 -82.7075 236° Southwest 214 246 10,500 -1,380 Level Cleveland Center
12:48PM 42.4058 -82.7736 235° Southwest 209 241 9,100 -1,380 Descending Cleveland Center
12:49PM 42.4064 -82.8500 271° West 216 249 7,700 -1,320 Descending Cleveland Center
12:50PM 42.4439 -82.9114 310° West 213 245 6,400 -1,200 Descending Cleveland Center
12:50PM 42.4406 -82.9033 119° Southeast 215 247 6,500 -420 Climbing Cleveland Center
12:51PM 42.4744 -82.9778 302° West 196 226 6,000 -540 Descending Cleveland Center
12:51PM 42.4731 -82.9681 101° East 211 243 6,000  Level Cleveland Center
12:52PM 42.4914 -83.0389 289° West 172 198 6,000  Level Cleveland Center
12:53PM 42.4911 -83.0983 270° West 162 186 6,000  Level Cleveland Center
12:53PM 42.4881 -83.1042 235° Southwest 151 174 6,000  Level Cleveland Center
12:54PM 42.4681 -83.1494 239° Southwest 157 181 6,000  Level Cleveland Center
12:54PM 42.4708 -83.1483 16° North 153 176 6,000 -300 Level Cleveland Center
12:55PM 42.4308 -83.1778 209° Southwest 161 185 5,700 -720 Descending Cleveland Center
12:56PM 42.3900 -83.2094 210° Southwest 163 188 4,700 -1,020 Descending Cleveland Center
12:56PM 42.3922 -83.2069 40° Northeast 160 184 4,700 -840 Level Cleveland Center
12:57PM 42.3522 -83.2361 208° Southwest 162 186 3,800 -1,020 Descending Cleveland Center
12:58PM 42.3100 -83.2689 210° Southwest 161 185 2,800 -1,080 Descending Cleveland Center
12:58PM 42.3061 -83.2697 189° South 158 182 2,700 -780 Descending Cleveland Center
12:59PM 42.2683 -83.2978 209° Southwest 156 180 1,900 -840 Descending Cleveland Center
01:00PM 42.2322 -83.3258 210° Southwest 144 166 1,100 -900 Descending Cleveland Center
01:00PM 42.2328 -83.3250 48° Northeast 150 173 1,000 -1,020 Descending Cleveland Center
01:02PM 42.2124 -83.3534 246° West  Level Estimated
01:09PM 42.2124 -83.3534 246° West  Level Estimated
01:10PM 42.2124 -83.3534 246° West  Level Estimated